Time;durP1;ratioP1;P1;durP2;ratioP2;P2;SDS_P1;SDS_P2;PMS_P1;PMS_P2;Temp;Humidity;BMP_temperature;BMP_pressure;BME280_temperature;BME280_humidity;BME280_pressure;Samples;Min_cycle;Max_cycle;Signal;HPM_P1;HPM_P2
2021/10/07 00:02:05;;;;;;;1.10;1.10;;;17.10;83.60;;;;;;5095119;28;20040;-57
2021/10/07 00:04:31;;;;;;;0.93;0.90;;;17.00;83.60;;;;;;5095363;28;20040;-57
2021/10/07 00:06:57;;;;;;;1.13;1.08;;;17.10;83.60;;;;;;5095189;28;20044;-61
2021/10/07 00:09:23;;;;;;;0.98;0.88;;;17.10;83.60;;;;;;5095246;28;20055;-59
2021/10/07 00:11:49;;;;;;;1.75;0.82;;;17.10;83.70;;;;;;5095373;28;20047;-62
2021/10/07 00:14:15;;;;;;;1.13;1.00;;;17.10;83.60;;;;;;5094943;28;20389;-59
2021/10/07 00:16:41;;;;;;;1.05;0.95;;;17.10;83.60;;;;;;5094735;28;20746;-58
2021/10/07 00:19:07;;;;;;;0.80;0.80;;;17.10;83.60;;;;;;5094867;28;20054;-57
2021/10/07 00:21:32;;;;;;;1.00;0.90;;;17.10;83.60;;;;;;5095202;28;20032;-60
2021/10/07 00:24:11;;;;;;;1.05;0.98;;;17.10;83.60;;;;;;5095358;28;20447;-58
2021/10/07 00:26:42;;;;;;;0.70;0.70;;;17.00;83.50;;;;;;5094187;28;20472;-59
2021/10/07 00:31:57;;;;;;;0.82;0.82;;;16.90;83.50;;;;;;5094761;28;20047;-65
2021/10/07 00:39:20;;;;;;;1.25;1.15;;;17.10;83.60;;;;;;5093986;28;20579;-63
2021/10/07 00:41:46;;;;;;;1.10;1.00;;;16.90;83.40;;;;;;5095033;28;20134;-67
2021/10/07 00:44:12;;;;;;;1.05;1.05;;;17.10;83.50;;;;;;5094464;28;20043;-66
2021/10/07 00:46:58;;;;;;;1.08;1.08;;;17.00;83.40;;;;;;5094253;28;20590;-61
2021/10/07 00:49:25;;;;;;;1.10;1.00;;;17.00;83.50;;;;;;5093633;28;20036;-61
2021/10/07 00:51:51;;;;;;;1.40;1.30;;;17.00;83.50;;;;;;5094515;28;20044;-58
2021/10/07 00:54:19;;;;;;;0.98;0.95;;;17.00;83.50;;;;;;5094402;28;20454;-57
2021/10/07 00:56:45;;;;;;;0.93;0.90;;;17.00;83.40;;;;;;5094154;28;20471;-62
2021/10/07 00:59:11;;;;;;;1.00;1.00;;;17.00;83.30;;;;;;5094024;28;20491;-61
2021/10/07 01:01:37;;;;;;;1.00;0.90;;;17.00;83.40;;;;;;5094170;28;20511;-61
2021/10/07 01:04:04;;;;;;;0.90;0.90;;;16.90;83.30;;;;;;5092615;28;20096;-68
2021/10/07 01:06:30;;;;;;;1.27;1.17;;;17.00;83.30;;;;;;5093585;28;20036;-68
2021/10/07 01:08:57;;;;;;;0.75;0.75;;;17.00;83.30;;;;;;5093774;28;20081;-70
2021/10/07 01:11:22;;;;;;;1.35;1.00;;;17.00;83.30;;;;;;5094329;28;20074;-69
2021/10/07 01:13:48;;;;;;;0.90;0.90;;;17.00;83.30;;;;;;5093952;28;20357;-69
2021/10/07 01:16:16;;;;;;;1.00;0.90;;;17.00;83.30;;;;;;5092552;28;20083;-69
2021/10/07 01:18:45;;;;;;;1.10;1.00;;;17.00;83.30;;;;;;5093702;28;20476;-69
2021/10/07 01:21:12;;;;;;;1.20;1.10;;;17.00;83.30;;;;;;5093775;28;20115;-69
2021/10/07 01:23:43;;;;;;;1.25;1.00;;;17.00;83.30;;;;;;5093892;28;20044;-69
2021/10/07 01:26:10;;;;;;;1.20;1.10;;;17.00;83.40;;;;;;5093250;28;20059;-65
2021/10/07 01:28:40;;;;;;;1.00;0.90;;;17.00;83.30;;;;;;5093736;28;20043;-68
2021/10/07 01:31:07;;;;;;;1.13;1.02;;;17.00;83.30;;;;;;5093531;28;20506;-67
2021/10/07 01:33:33;;;;;;;1.10;1.00;;;17.00;83.30;;;;;;5092154;28;20040;-66
2021/10/07 01:35:59;;;;;;;0.90;0.90;;;17.00;83.30;;;;;;5093383;28;20134;-66
2021/10/07 01:38:25;;;;;;;1.15;0.93;;;17.00;83.30;;;;;;5091952;28;20514;-69
2021/10/07 01:40:51;;;;;;;1.38;0.90;;;17.00;83.30;;;;;;5093841;28;20123;-63
2021/10/07 01:43:17;;;;;;;1.10;1.00;;;17.00;83.30;;;;;;5092489;28;20116;-64
2021/10/07 01:45:45;;;;;;;1.10;1.00;;;17.00;83.30;;;;;;5093426;28;20048;-64
2021/10/07 01:48:11;;;;;;;1.00;1.00;;;17.00;83.30;;;;;;5093509;28;20047;-67
2021/10/07 01:50:37;;;;;;;1.10;1.00;;;17.00;83.90;;;;;;5093342;28;20040;-66
2021/10/07 01:53:02;;;;;;;1.23;1.13;;;17.00;83.20;;;;;;5092653;28;20160;-66
2021/10/07 01:55:28;;;;;;;0.70;0.70;;;17.00;83.30;;;;;;5093365;28;20039;-60
2021/10/07 01:57:54;;;;;;;1.20;1.10;;;17.00;83.20;;;;;;5092764;28;20044;-62
2021/10/07 02:00:20;;;;;;;1.00;0.90;;;17.00;83.20;;;;;;5092858;28;20044;-66
2021/10/07 02:02:46;;;;;;;1.30;1.20;;;17.00;83.20;;;;;;5092160;28;20459;-64
2021/10/07 02:05:12;;;;;;;1.20;1.05;;;17.00;83.20;;;;;;5093509;28;20076;-64
2021/10/07 02:07:38;;;;;;;0.90;0.90;;;17.00;83.20;;;;;;5092986;28;20077;-69
2021/10/07 02:10:08;;;;;;;1.00;1.00;;;16.90;83.20;;;;;;5092895;28;20040;-66
2021/10/07 02:12:34;;;;;;;1.17;1.08;;;17.00;83.20;;;;;;5093278;28;20088;-68
2021/10/07 02:15:00;;;;;;;1.30;1.20;;;17.00;83.20;;;;;;5092947;28;20040;-67
2021/10/07 02:17:26;;;;;;;1.13;1.00;;;17.00;83.20;;;;;;5092967;28;20110;-65
2021/10/07 02:19:52;;;;;;;1.00;0.90;;;17.00;83.20;;;;;;5092708;28;20036;-66
2021/10/07 02:22:17;;;;;;;1.20;1.10;;;16.90;83.00;;;;;;5093052;28;20585;-63
2021/10/07 02:24:43;;;;;;;1.27;1.08;;;17.00;83.10;;;;;;5091675;28;20075;-61
2021/10/07 02:27:09;;;;;;;1.20;0.93;;;17.00;82.90;;;;;;5092789;28;20044;-68
2021/10/07 02:29:35;;;;;;;1.23;1.13;;;16.90;82.90;;;;;;5092356;28;20039;-68
2021/10/07 02:32:01;;;;;;;1.10;1.00;;;17.00;82.90;;;;;;5092526;28;20094;-64
2021/10/07 02:34:26;;;;;;;1.73;1.08;;;17.00;82.90;;;;;;5091286;28;20071;-67
2021/10/07 02:36:52;;;;;;;1.10;1.00;;;17.00;83.00;;;;;;5091889;28;20083;-69
2021/10/07 02:39:18;;;;;;;1.02;0.93;;;16.90;82.90;;;;;;5092131;28;20040;-68
2021/10/07 02:41:44;;;;;;;1.00;1.00;;;16.90;82.90;;;;;;5092536;28;20059;-58
2021/10/07 02:44:10;;;;;;;1.17;1.08;;;16.90;82.90;;;;;;5092674;28;20400;-57
2021/10/07 02:46:35;;;;;;;1.02;1.02;;;17.00;82.90;;;;;;5092101;28;20048;-57
2021/10/07 02:49:02;;;;;;;1.00;1.00;;;16.90;82.90;;;;;;5092450;28;20036;-62
2021/10/07 02:51:27;;;;;;;1.20;1.10;;;16.90;82.90;;;;;;5091992;28;20234;-59
2021/10/07 02:53:53;;;;;;;1.20;1.10;;;16.90;82.80;;;;;;5092206;28;20400;-58
2021/10/07 02:56:19;;;;;;;1.10;1.00;;;16.90;82.90;;;;;;5091429;28;20032;-58
2021/10/07 02:58:44;;;;;;;1.15;1.05;;;16.90;82.80;;;;;;5091771;28;20442;-57
2021/10/07 03:01:10;;;;;;;1.00;1.00;;;16.90;82.80;;;;;;5092225;28;20051;-56
2021/10/07 03:03:36;;;;;;;1.77;1.00;;;16.90;82.80;;;;;;5091951;28;20158;-56
2021/10/07 03:06:01;;;;;;;1.02;0.95;;;16.90;83.40;;;;;;5092401;28;20057;-61
2021/10/07 03:08:27;;;;;;;0.98;0.98;;;16.90;82.70;;;;;;5091885;28;20048;-57
2021/10/07 03:10:57;;;;;;;1.08;0.98;;;16.90;82.70;;;;;;5091402;28;20093;-58
2021/10/07 03:13:23;;;;;;;1.05;1.00;;;16.90;82.80;;;;;;5092452;28;20400;-57
2021/10/07 03:15:49;;;;;;;1.10;0.98;;;16.90;82.80;;;;;;5091949;28;20040;-58
2021/10/07 03:18:15;;;;;;;1.33;1.23;;;16.90;82.70;;;;;;5092008;28;20036;-57
2021/10/07 03:20:41;;;;;;;1.00;0.90;;;16.90;82.70;;;;;;5091989;28;20532;-60
2021/10/07 03:23:07;;;;;;;0.93;0.93;;;16.90;82.70;;;;;;5092422;28;20078;-58
2021/10/07 03:25:33;;;;;;;1.00;1.00;;;16.90;82.70;;;;;;5089804;28;20385;-57
2021/10/07 03:27:58;;;;;;;1.08;0.98;;;16.90;82.70;;;;;;5091804;28;20131;-59
2021/10/07 03:30:24;;;;;;;1.23;1.13;;;16.90;82.80;;;;;;5091639;28;20448;-69
2021/10/07 03:32:50;;;;;;;1.20;1.10;;;16.90;82.70;;;;;;5092083;28;20036;-69
2021/10/07 03:35:15;;;;;;;1.10;1.00;;;17.00;82.70;;;;;;5092119;28;20051;-68
2021/10/07 03:37:41;;;;;;;0.90;0.90;;;16.90;82.60;;;;;;5091765;28;20051;-68
2021/10/07 03:40:08;;;;;;;0.85;0.85;;;16.90;82.70;;;;;;5091858;28;20040;-69
2021/10/07 03:42:34;;;;;;;1.55;1.30;;;16.90;82.70;;;;;;5091318;28;20046;-67
2021/10/07 03:45:02;;;;;;;1.98;1.10;;;16.80;82.50;;;;;;5092016;28;20052;-70
2021/10/07 03:47:29;;;;;;;1.10;1.00;;;16.90;82.60;;;;;;5092147;28;20093;-69
2021/10/07 03:49:58;;;;;;;1.20;1.10;;;16.80;82.60;;;;;;5091305;28;20032;-64
2021/10/07 03:52:25;;;;;;;1.25;1.15;;;16.90;82.60;;;;;;5091939;28;20044;-66
2021/10/07 03:54:52;;;;;;;1.30;1.20;;;16.90;82.60;;;;;;5091726;28;20044;-68
2021/10/07 03:57:18;;;;;;;1.52;1.10;;;16.90;82.50;;;;;;5091688;28;20051;-67
2021/10/07 03:59:43;;;;;;;1.05;0.98;;;16.90;82.50;;;;;;5091473;28;20040;-66
2021/10/07 04:02:09;;;;;;;1.20;1.10;;;16.80;82.50;;;;;;5091474;28;20070;-67
2021/10/07 04:04:35;;;;;;;1.10;1.00;;;16.90;82.60;;;;;;5091167;28;20040;-70
2021/10/07 04:07:00;;;;;;;1.23;1.13;;;16.90;82.50;;;;;;5092870;28;20044;-69
2021/10/07 04:09:26;;;;;;;1.23;1.17;;;16.90;82.50;;;;;;5095529;28;20044;-68
2021/10/07 04:11:52;;;;;;;1.25;1.15;;;16.90;82.50;;;;;;5095425;28;20076;-65
2021/10/07 04:14:18;;;;;;;0.98;0.90;;;16.90;82.50;;;;;;5094612;28;20055;-66
2021/10/07 04:16:44;;;;;;;1.30;1.20;;;16.90;82.50;;;;;;5095709;28;20540;-69
2021/10/07 04:19:09;;;;;;;1.40;1.27;;;16.90;82.50;;;;;;5094921;28;20055;-63
2021/10/07 04:21:35;;;;;;;1.20;1.13;;;16.90;82.50;;;;;;5095044;28;20169;-51
2021/10/07 04:24:01;;;;;;;1.10;1.00;;;16.90;82.50;;;;;;5094912;28;20181;-68
2021/10/07 04:26:27;;;;;;;1.05;0.95;;;16.90;82.50;;;;;;5094457;28;20140;-68
2021/10/07 04:28:53;;;;;;;1.27;1.13;;;16.90;82.50;;;;;;5094839;28;20040;-68
2021/10/07 04:31:18;;;;;;;1.20;1.10;;;16.90;82.50;;;;;;5094833;28;20063;-66
2021/10/07 04:33:44;;;;;;;1.20;1.10;;;16.70;82.30;;;;;;5094543;28;20035;-68
2021/10/07 04:36:10;;;;;;;1.50;1.10;;;16.90;82.40;;;;;;5095159;28;20044;-68
2021/10/07 04:38:36;;;;;;;1.20;1.10;;;16.80;82.40;;;;;;5094549;28;20480;-67
2021/10/07 04:41:02;;;;;;;0.90;0.90;;;16.90;82.50;;;;;;5094573;28;20055;-68
2021/10/07 04:43:28;;;;;;;1.15;1.08;;;16.80;82.40;;;;;;5094641;28;20042;-65
2021/10/07 04:45:54;;;;;;;1.30;1.20;;;16.90;82.30;;;;;;5092710;28;20638;-65
2021/10/07 04:48:19;;;;;;;1.17;1.08;;;16.80;82.30;;;;;;5094080;28;20032;-65
2021/10/07 04:50:45;;;;;;;1.25;1.15;;;16.80;82.30;;;;;;5094592;28;20089;-63
2021/10/07 04:53:11;;;;;;;1.67;1.30;;;16.90;82.40;;;;;;5093827;28;20116;-56
2021/10/07 04:55:37;;;;;;;1.10;0.95;;;16.80;82.30;;;;;;5094029;28;20083;-67
2021/10/07 04:58:02;;;;;;;1.30;1.20;;;16.80;82.30;;;;;;5094319;28;20044;-62
2021/10/07 05:00:28;;;;;;;1.33;1.23;;;16.80;82.40;;;;;;5094128;28;20044;-61
2021/10/07 05:02:54;;;;;;;1.35;1.15;;;16.80;82.30;;;;;;5093635;28;20048;-60
2021/10/07 05:05:19;;;;;;;1.40;1.00;;;16.80;82.30;;;;;;5092693;28;20040;-68
2021/10/07 05:07:45;;;;;;;0.93;0.90;;;16.80;82.40;;;;;;5094684;28;20036;-57
2021/10/07 05:10:11;;;;;;;1.05;0.95;;;16.80;82.40;;;;;;5093827;28;20633;-60
2021/10/07 05:12:39;;;;;;;1.20;1.10;;;16.90;82.40;;;;;;5092510;28;20080;-65
2021/10/07 05:15:06;;;;;;;1.40;1.30;;;16.80;82.30;;;;;;5093487;28;21052;-66
2021/10/07 05:17:31;;;;;;;1.42;1.20;;;16.80;82.40;;;;;;5092715;28;20137;-61
2021/10/07 05:19:57;;;;;;;1.20;1.10;;;16.80;82.30;;;;;;5094178;28;20109;-67
2021/10/07 05:22:23;;;;;;;1.48;1.30;;;16.80;82.30;;;;;;5094177;28;20118;-63
2021/10/07 05:24:48;;;;;;;1.00;1.00;;;16.80;82.20;;;;;;5093320;28;20043;-67
2021/10/07 05:27:15;;;;;;;1.20;1.10;;;16.80;82.20;;;;;;5093604;28;20127;-66
2021/10/07 05:29:41;;;;;;;1.60;1.30;;;16.90;82.30;;;;;;5093215;28;20452;-66
2021/10/07 05:32:07;;;;;;;1.50;1.30;;;16.80;82.30;;;;;;5093441;28;20079;-60
2021/10/07 05:34:33;;;;;;;1.23;1.13;;;16.80;82.30;;;;;;5093074;28;20392;-60
2021/10/07 05:36:58;;;;;;;1.15;1.10;;;16.80;82.30;;;;;;5093245;28;20052;-60
2021/10/07 05:39:24;;;;;;;1.15;1.08;;;16.80;82.30;;;;;;5093301;28;20113;-61
2021/10/07 05:41:49;;;;;;;1.40;1.20;;;16.80;82.30;;;;;;5093186;28;20051;-59
2021/10/07 05:44:15;;;;;;;1.48;1.20;;;16.80;82.30;;;;;;5092550;28;20040;-64
2021/10/07 05:46:41;;;;;;;1.40;1.30;;;16.70;82.20;;;;;;5092061;28;20456;-59
2021/10/07 05:49:07;;;;;;;1.38;1.20;;;16.80;82.30;;;;;;5092500;28;20481;-68
2021/10/07 05:51:33;;;;;;;1.55;1.30;;;16.80;82.30;;;;;;5093698;28;20055;-60
2021/10/07 05:53:59;;;;;;;7.60;5.80;;;16.80;82.30;;;;;;5093530;28;20051;-63
2021/10/07 05:56:25;;;;;;;10.00;5.82;;;16.70;79.90;;;;;;5093232;28;20341;-67
2021/10/07 05:58:51;;;;;;;8.18;5.18;;;16.70;77.90;;;;;;5093259;28;20047;-62
2021/10/07 06:01:17;;;;;;;10.10;5.80;;;16.60;77.80;;;;;;5093293;28;20050;-66
2021/10/07 06:03:42;;;;;;;7.85;5.68;;;16.50;78.00;;;;;;5092497;28;20385;-62
2021/10/07 06:06:08;;;;;;;6.38;5.07;;;16.50;78.30;;;;;;5092736;28;20052;-67
2021/10/07 06:08:34;;;;;;;8.45;6.20;;;16.50;78.70;;;;;;5093131;28;20043;-63
2021/10/07 06:11:00;;;;;;;6.85;5.40;;;16.50;79.00;;;;;;5091234;28;20051;-62
2021/10/07 06:13:25;;;;;;;7.38;5.70;;;16.50;79.20;;;;;;5093077;28;20051;-66
2021/10/07 06:15:53;;;;;;;6.20;5.15;;;16.50;79.50;;;;;;5092923;28;20046;-65
2021/10/07 06:18:19;;;;;;;7.88;5.80;;;16.50;79.80;;;;;;5092968;28;20089;-65
2021/10/07 06:20:45;;;;;;;6.55;5.63;;;16.50;80.00;;;;;;5092342;28;20084;-65
2021/10/07 06:23:11;;;;;;;8.07;5.50;;;16.50;80.10;;;;;;5092787;28;20035;-65
2021/10/07 06:25:37;;;;;;;8.88;5.22;;;16.50;80.20;;;;;;5092038;28;20245;-64
2021/10/07 06:28:04;;;;;;;6.10;4.63;;;16.50;80.30;;;;;;5092612;28;20094;-65
2021/10/07 06:30:30;;;;;;;7.00;5.03;;;16.60;80.40;;;;;;5091122;28;20229;-66
2021/10/07 06:32:59;;;;;;;7.45;5.07;;;16.60;80.60;;;;;;5092400;28;20584;-65
2021/10/07 06:35:25;;;;;;;6.22;4.82;;;16.60;80.70;;;;;;5092755;28;20502;-65
2021/10/07 06:37:51;;;;;;;7.10;5.15;;;16.60;80.80;;;;;;5092122;28;20047;-63
2021/10/07 06:40:17;;;;;;;6.65;5.30;;;16.60;81.00;;;;;;5090889;28;20059;-64
2021/10/07 06:42:43;;;;;;;6.00;5.15;;;16.60;81.10;;;;;;5092052;28;20065;-66
2021/10/07 06:45:10;;;;;;;5.82;4.82;;;16.60;81.20;;;;;;5092716;28;20044;-66
2021/10/07 06:47:37;;;;;;;7.03;5.50;;;16.60;81.20;;;;;;5092387;28;20169;-65
2021/10/07 06:50:06;;;;;;;5.25;4.18;;;16.60;81.30;;;;;;5092046;28;20043;-64
2021/10/07 06:52:32;;;;;;;6.40;4.82;;;16.60;81.20;;;;;;5091506;28;20488;-64
2021/10/07 06:54:59;;;;;;;5.38;4.38;;;16.60;81.20;;;;;;5092162;28;20079;-56
2021/10/07 06:57:24;;;;;;;5.97;4.57;;;16.60;81.30;;;;;;5092135;28;20036;-53
2021/10/07 06:59:50;;;;;;;6.30;4.85;;;16.60;81.10;;;;;;5092073;28;20043;-56
2021/10/07 07:02:15;;;;;;;6.20;4.97;;;16.60;79.60;;;;;;5092046;28;20039;-54
2021/10/07 07:04:41;;;;;;;6.35;5.22;;;16.60;79.40;;;;;;5091037;28;21674;-56
2021/10/07 07:07:07;;;;;;;5.93;4.68;;;16.50;79.60;;;;;;5091747;28;20473;-55
2021/10/07 07:09:32;;;;;;;5.88;4.88;;;16.50;79.90;;;;;;5091271;28;20046;-55
2021/10/07 07:11:58;;;;;;;6.57;4.63;;;16.50;80.20;;;;;;5092369;28;20051;-55
2021/10/07 07:14:24;;;;;;;6.07;4.32;;;16.60;80.40;;;;;;5090976;28;20055;-55
2021/10/07 07:16:49;;;;;;;4.57;3.88;;;16.50;80.50;;;;;;5092406;28;20032;-56
2021/10/07 07:19:15;;;;;;;5.82;4.35;;;16.60;80.50;;;;;;5092009;28;20377;-53
2021/10/07 07:21:41;;;;;;;5.75;4.80;;;16.50;80.60;;;;;;5091157;28;20083;-57
2021/10/07 07:24:07;;;;;;;6.55;4.90;;;16.50;79.20;;;;;;5091121;28;20341;-57
2021/10/07 07:26:35;;;;;;;6.32;4.50;;;16.50;78.80;;;;;;5090602;28;20060;-55
2021/10/07 07:29:01;;;;;;;4.95;3.67;;;16.50;78.90;;;;;;5091660;28;20044;-58
2021/10/07 07:31:27;;;;;;;5.15;4.32;;;16.50;78.90;;;;;;5091795;28;20050;-59
2021/10/07 07:33:53;;;;;;;5.45;4.28;;;16.40;79.00;;;;;;5091303;28;20443;-57
2021/10/07 07:36:21;;;;;;;5.40;4.35;;;16.50;79.10;;;;;;5091295;28;20130;-60
2021/10/07 07:38:49;;;;;;;7.20;4.10;;;16.50;79.20;;;;;;5091276;28;20127;-56
2021/10/07 07:41:16;;;;;;;5.03;4.28;;;16.40;79.40;;;;;;5091611;28;20110;-56
2021/10/07 07:43:42;;;;;;;5.95;4.38;;;16.50;79.60;;;;;;5095148;28;20048;-57
2021/10/07 07:46:08;;;;;;;5.38;3.88;;;16.50;79.80;;;;;;5095465;28;20094;-58
2021/10/07 07:48:35;;;;;;;4.80;4.20;;;16.50;79.90;;;;;;5095263;28;20076;-57
2021/10/07 07:51:01;;;;;;;4.65;4.15;;;16.50;80.10;;;;;;5095055;28;20044;-58
2021/10/07 07:53:27;;;;;;;4.53;3.50;;;16.50;80.20;;;;;;5095014;28;20400;-59
2021/10/07 07:55:53;;;;;;;3.90;3.47;;;16.50;80.30;;;;;;5092798;28;20048;-58
2021/10/07 07:58:19;;;;;;;4.53;3.92;;;16.50;80.30;;;;;;5095522;28;20036;-59
2021/10/07 08:00:46;;;;;;;4.72;4.18;;;16.50;80.40;;;;;;5095067;28;20043;-59
2021/10/07 08:03:12;;;;;;;4.07;3.50;;;16.50;80.60;;;;;;5095416;28;20122;-57
2021/10/07 08:05:38;;;;;;;4.55;3.83;;;16.50;80.60;;;;;;5094246;28;20209;-60
2021/10/07 08:08:04;;;;;;;3.78;3.38;;;16.50;80.80;;;;;;5095468;28;20471;-59
2021/10/07 08:10:29;;;;;;;4.88;3.92;;;16.50;80.90;;;;;;5093870;28;20048;-60
2021/10/07 08:12:55;;;;;;;4.95;4.30;;;16.50;80.90;;;;;;5094929;28;20042;-59
2021/10/07 08:15:21;;;;;;;4.53;3.78;;;16.50;81.00;;;;;;5095129;28;20047;-60
2021/10/07 08:17:47;;;;;;;4.30;3.70;;;16.40;81.10;;;;;;5094998;28;20036;-60
2021/10/07 08:20:14;;;;;;;3.78;3.33;;;16.50;81.10;;;;;;5094968;28;20442;-60
2021/10/07 08:22:41;;;;;;;4.95;3.90;;;16.50;81.10;;;;;;5093737;28;20048;-58
2021/10/07 08:25:09;;;;;;;4.28;3.83;;;16.50;81.10;;;;;;5094326;28;20050;-60
2021/10/07 08:27:36;;;;;;;3.33;2.90;;;16.50;80.90;;;;;;5094609;28;20040;-58
2021/10/07 08:30:04;;;;;;;3.45;2.78;;;16.50;81.10;;;;;;5095052;28;20055;-58
2021/10/07 08:32:30;;;;;;;4.57;3.40;;;16.50;81.00;;;;;;5094454;28;20047;-59
2021/10/07 08:34:56;;;;;;;5.00;3.38;;;16.50;80.90;;;;;;5092103;28;20028;-58
2021/10/07 08:37:21;;;;;;;3.78;3.20;;;16.50;81.20;;;;;;5093942;28;20541;-58
2021/10/07 08:39:47;;;;;;;4.88;3.88;;;16.50;81.20;;;;;;5094512;28;20392;-56
2021/10/07 08:42:14;;;;;;;4.00;3.35;;;16.50;81.30;;;;;;5093694;28;20040;-60
2021/10/07 08:44:40;;;;;;;4.00;3.25;;;16.50;81.50;;;;;;5093486;28;20400;-61
2021/10/07 08:47:06;;;;;;;4.40;3.30;;;16.50;81.50;;;;;;5093541;28;20167;-60
2021/10/07 08:49:38;;;;;;;3.92;3.30;;;16.50;81.60;;;;;;5093281;28;20032;-60
2021/10/07 08:52:05;;;;;;;3.85;2.75;;;16.50;81.80;;;;;;5090887;28;20048;-58
2021/10/07 08:54:33;;;;;;;3.35;2.97;;;16.50;81.80;;;;;;5093575;28;20082;-59
2021/10/07 08:57:05;;;;;;;3.30;2.88;;;16.50;81.90;;;;;;5091169;28;20120;-59
2021/10/07 08:59:32;;;;;;;3.38;2.80;;;16.50;82.00;;;;;;5092364;28;20036;-60
2021/10/07 09:02:01;;;;;;;3.30;2.88;;;16.50;82.10;;;;;;5093411;28;20051;-60
2021/10/07 09:04:35;;;;;;;3.05;2.70;;;16.50;82.10;;;;;;5091804;28;20047;-59
2021/10/07 09:07:05;;;;;;;3.38;2.80;;;16.50;82.10;;;;;;5085432;28;20404;-58
2021/10/07 09:09:33;;;;;;;4.13;2.97;;;16.50;82.00;;;;;;5092317;28;20067;-60
2021/10/07 09:12:04;;;;;;;3.60;2.97;;;16.50;82.00;;;;;;5093599;28;20056;-60
2021/10/07 09:14:42;;;;;;;3.53;2.92;;;16.50;81.90;;;;;;5092793;28;20074;-58
2021/10/07 09:17:10;;;;;;;3.38;2.70;;;16.60;82.20;;;;;;5093731;28;20067;-59
2021/10/07 09:19:41;;;;;;;3.15;2.80;;;16.50;82.10;;;;;;5093286;28;20044;-60
2021/10/07 09:22:24;;;;;;;2.92;2.63;;;16.50;82.20;;;;;;5093554;28;20044;-60
2021/10/07 09:24:55;;;;;;;3.20;2.80;;;16.50;82.30;;;;;;5092581;28;20036;-59
2021/10/07 09:27:27;;;;;;;3.40;2.70;;;16.50;82.10;;;;;;5092603;28;20131;-60
2021/10/07 09:29:58;;;;;;;4.00;2.72;;;16.50;82.20;;;;;;5092698;28;20458;-58
2021/10/07 09:32:35;;;;;;;2.90;2.40;;;16.50;82.30;;;;;;5092698;28;20115;-58
2021/10/07 09:35:06;;;;;;;2.67;2.47;;;16.50;82.30;;;;;;5092836;28;20127;-59
2021/10/07 09:37:37;;;;;;;3.40;2.80;;;16.50;82.20;;;;;;5093264;28;20051;-60
2021/10/07 09:40:11;;;;;;;3.15;2.80;;;16.50;82.40;;;;;;5092857;28;20043;-61
2021/10/07 09:42:41;;;;;;;3.47;2.90;;;16.50;82.50;;;;;;5092324;28;20089;-58
2021/10/07 09:45:08;;;;;;;3.25;2.67;;;16.50;82.50;;;;;;5093166;28;20119;-58
2021/10/07 09:47:37;;;;;;;2.72;2.17;;;16.50;82.50;;;;;;5092691;28;20040;-59
2021/10/07 09:50:12;;;;;;;2.72;2.40;;;16.50;82.60;;;;;;5090999;28;20086;-60
2021/10/07 09:52:39;;;;;;;2.65;2.45;;;16.50;82.50;;;;;;5093067;28;20435;-58
2021/10/07 09:55:14;;;;;;;3.17;2.58;;;16.50;82.40;;;;;;5091319;28;20065;-60
2021/10/07 09:57:58;;;;;;;2.63;2.28;;;16.60;82.50;;;;;;5092957;28;20055;-59
2021/10/07 10:00:29;;;;;;;2.75;2.50;;;16.60;82.50;;;;;;5092416;28;20087;-59
2021/10/07 10:02:57;;;;;;;3.00;2.70;;;16.60;82.60;;;;;;5092222;28;20091;-58
2021/10/07 10:05:23;;;;;;;2.50;2.13;;;16.50;82.60;;;;;;5092278;28;20487;-60
2021/10/07 10:07:49;;;;;;;3.15;2.47;;;16.60;82.60;;;;;;5093242;28;20511;-60
2021/10/07 10:10:15;;;;;;;2.60;2.30;;;16.60;82.70;;;;;;5092929;28;20434;-60
2021/10/07 10:12:42;;;;;;;2.97;2.30;;;16.50;82.70;;;;;;5092820;28;20037;-58
2021/10/07 10:15:09;;;;;;;2.72;2.33;;;16.60;82.80;;;;;;5092415;28;20484;-58
2021/10/07 10:17:35;;;;;;;2.80;2.10;;;16.50;82.80;;;;;;5092214;28;20671;-58
2021/10/07 10:20:05;;;;;;;2.92;2.60;;;16.60;82.70;;;;;;5090938;28;20131;-57
2021/10/07 10:22:32;;;;;;;2.78;2.17;;;16.60;82.80;;;;;;5091963;28;20437;-59
2021/10/07 10:24:59;;;;;;;2.78;2.28;;;16.50;82.90;;;;;;5090690;28;20047;-57
2021/10/07 10:27:25;;;;;;;2.55;2.22;;;16.60;82.90;;;;;;5092139;28;20048;-59
2021/10/07 10:30:23;;;;;;;2.30;2.10;;;16.60;82.90;;;;;;5092587;28;20044;-57
2021/10/07 10:32:49;;;;;;;2.50;2.05;;;16.60;82.90;;;;;;5090144;28;20115;-56
2021/10/07 10:35:34;;;;;;;3.13;2.30;;;16.60;82.90;;;;;;5091853;28;20036;-57
2021/10/07 10:38:01;;;;;;;2.50;2.20;;;16.60;82.90;;;;;;5092627;28;20079;-58
2021/10/07 10:40:27;;;;;;;2.72;2.30;;;16.60;83.00;;;;;;5092294;28;20060;-60
2021/10/07 10:43:17;;;;;;;2.78;2.28;;;16.50;82.90;;;;;;5091914;28;20047;-58
2021/10/07 10:45:47;;;;;;;2.65;2.20;;;16.60;83.00;;;;;;5091786;28;20577;-59
2021/10/07 10:48:33;;;;;;;3.33;2.60;;;16.60;83.00;;;;;;5092278;28;20047;-59
2021/10/07 10:51:02;;;;;;;2.35;2.10;;;16.60;83.10;;;;;;5091048;28;20784;-58
2021/10/07 10:53:27;;;;;;;2.90;2.33;;;16.60;83.10;;;;;;5091730;28;20070;-58
2021/10/07 10:55:53;;;;;;;2.70;2.42;;;16.60;83.10;;;;;;5090019;28;20123;-59
2021/10/07 10:58:18;;;;;;;2.45;2.05;;;16.60;83.10;;;;;;5091856;28;20075;-58
2021/10/07 11:00:45;;;;;;;2.35;2.10;;;16.60;83.10;;;;;;5092240;28;20052;-55
2021/10/07 11:03:18;;;;;;;2.42;2.10;;;16.60;83.10;;;;;;5091777;28;20107;-57
2021/10/07 11:06:05;;;;;;;2.25;2.03;;;16.60;83.20;;;;;;5087822;28;20040;-57
2021/10/07 11:08:56;;;;;;;3.35;2.35;;;16.60;83.20;;;;;;5087924;28;20055;-56
2021/10/07 11:11:23;;;;;;;2.60;2.13;;;16.60;83.10;;;;;;5071346;28;20500;-58
2021/10/07 11:13:51;;;;;;;2.20;1.90;;;16.60;83.20;;;;;;5074690;28;20885;-59
2021/10/07 11:16:20;;;;;;;2.60;2.40;;;16.60;83.40;;;;;;5095243;28;20126;-59
2021/10/07 11:18:49;;;;;;;2.28;2.05;;;16.60;83.30;;;;;;5090942;28;20047;-57
2021/10/07 11:21:18;;;;;;;2.30;2.10;;;16.40;83.20;;;;;;5085280;28;20071;-60
2021/10/07 11:23:46;;;;;;;2.17;1.83;;;16.60;83.20;;;;;;5094925;28;20118;-58
2021/10/07 11:26:12;;;;;;;2.20;2.00;;;16.60;83.30;;;;;;5092278;28;20047;-57
2021/10/07 11:28:41;;;;;;;2.55;2.05;;;16.60;83.30;;;;;;5094963;28;20136;-57
2021/10/07 11:31:12;;;;;;;2.35;1.77;;;16.60;83.30;;;;;;5095100;28;20189;-57
2021/10/07 11:33:40;;;;;;;2.70;2.00;;;16.60;83.30;;;;;;5094610;28;20040;-57
2021/10/07 11:36:08;;;;;;;2.22;2.03;;;16.60;83.20;;;;;;5094228;28;20043;-57
2021/10/07 11:38:39;;;;;;;2.60;2.20;;;16.60;83.20;;;;;;5094767;28;20036;-57
2021/10/07 11:41:05;;;;;;;2.17;1.98;;;16.60;83.30;;;;;;5094309;28;20040;-59
2021/10/07 11:43:33;;;;;;;2.30;1.92;;;16.60;83.20;;;;;;5094818;28;20028;-60
2021/10/07 11:46:05;;;;;;;2.15;1.83;;;16.60;83.30;;;;;;5094189;28;20491;-55
2021/10/07 11:48:31;;;;;;;2.47;1.90;;;16.60;83.30;;;;;;5091872;28;20510;-60
2021/10/07 11:51:03;;;;;;;2.92;2.20;;;16.60;83.30;;;;;;5094717;28;20115;-60
2021/10/07 11:53:41;;;;;;;2.40;2.10;;;16.60;83.30;;;;;;5094508;28;20039;-60
2021/10/07 11:56:18;;;;;;;2.13;1.90;;;16.60;83.30;;;;;;5093896;28;20036;-60
2021/10/07 11:58:51;;;;;;;2.38;2.17;;;16.60;83.30;;;;;;5093773;28;20403;-58
2021/10/07 12:01:19;;;;;;;2.70;2.40;;;16.60;83.30;;;;;;5094413;28;20572;-60
2021/10/07 12:03:44;;;;;;;2.42;2.10;;;16.60;83.30;;;;;;5095014;28;20429;-59
2021/10/07 12:06:13;;;;;;;2.50;2.15;;;16.60;83.30;;;;;;5094834;28;20036;-58
2021/10/07 12:08:45;;;;;;;2.25;2.05;;;16.60;83.30;;;;;;5094156;28;20047;-60
2021/10/07 12:11:15;;;;;;;2.58;1.90;;;16.60;83.30;;;;;;5078543;28;20077;-58
2021/10/07 12:14:02;;;;;;;2.53;2.05;;;16.60;83.30;;;;;;5094697;28;20048;-59
2021/10/07 12:16:39;;;;;;;2.85;2.08;;;16.60;83.30;;;;;;5089391;28;20411;-58
2021/10/07 12:19:10;;;;;;;2.78;2.38;;;16.60;83.30;;;;;;5094440;28;20050;-59
2021/10/07 12:21:44;;;;;;;2.80;1.90;;;16.60;83.30;;;;;;5094579;28;20050;-56
2021/10/07 12:24:14;;;;;;;2.20;2.00;;;16.60;83.30;;;;;;5093987;28;20622;-60
2021/10/07 12:26:46;;;;;;;14.98;10.95;;;16.60;83.30;;;;;;5093412;28;20067;-58
2021/10/07 12:29:22;;;;;;;14.27;10.90;;;16.60;81.70;;;;;;5088674;28;20506;-57
2021/10/07 12:32:02;;;;;;;15.20;11.43;;;16.50;80.40;;;;;;5094501;28;20409;-57
2021/10/07 12:34:42;;;;;;;14.90;11.45;;;16.40;80.00;;;;;;5094091;28;20150;-57
2021/10/07 12:37:10;;;;;;;16.60;11.52;;;16.40;80.00;;;;;;5094394;28;20051;-58
2021/10/07 12:39:41;;;;;;;25.58;13.15;;;16.20;79.50;;;;;;5093513;28;20068;-56
2021/10/07 12:42:17;;;;;;;22.90;12.30;;;16.20;79.40;;;;;;5094558;28;20063;-57
2021/10/07 12:44:50;;;;;;;17.95;11.75;;;16.10;79.90;;;;;;5090318;28;20163;-57
2021/10/07 12:47:23;;;;;;;23.50;12.23;;;16.10;80.20;;;;;;5093155;28;20127;-56
2021/10/07 12:49:52;;;;;;;27.48;12.38;;;16.10;80.50;;;;;;5093287;28;20100;-58
2021/10/07 12:52:22;;;;;;;17.90;12.35;;;16.10;81.30;;;;;;5094174;28;20071;-59
2021/10/07 12:55:02;;;;;;;21.25;12.18;;;16.20;80.90;;;;;;5093967;28;20439;-58
2021/10/07 12:57:54;;;;;;;20.15;11.48;;;16.20;81.80;;;;;;5092947;28;20127;-57